Time;durP1;ratioP1;P1;durP2;ratioP2;P2;SDS_P1;SDS_P2;PMS_P1;PMS_P2;Temp;Humidity;BMP_temperature;BMP_pressure;BME280_temperature;BME280_humidity;BME280_pressure;Samples;Min_cycle;Max_cycle;Signal;HPM_P1;HPM_P2
2023/02/13 00:02:17;;;;;;;10.20;6.60;;;;;;;7.25;99.99;102320.70;186033;1235;43973;-84
2023/02/13 00:06:20;;;;;;;11.00;7.60;;;;;;;7.10;100.00;102322.28;185821;1234;43843;-84
2023/02/13 00:10:23;;;;;;;10.80;8.70;;;;;;;7.19;100.00;102315.46;185986;1235;43896;-84
2023/02/13 00:14:27;;;;;;;14.80;7.40;;;;;;;7.26;100.00;102310.06;185990;1235;43816;-84
2023/02/13 00:18:32;;;;;;;11.90;8.00;;;;;;;7.24;100.00;102306.29;185851;1235;59191;-84
2023/02/13 00:22:38;;;;;;;15.30;8.90;;;;;;;7.24;100.00;102302.52;186013;1235;43686;-84
2023/02/13 00:26:41;;;;;;;10.20;7.50;;;;;;;7.11;100.00;102303.88;185798;1235;43796;-84
2023/02/13 00:30:44;;;;;;;12.90;6.80;;;;;;;6.85;100.00;102307.05;185877;1234;43887;-84
2023/02/13 00:34:46;;;;;;;14.30;8.60;;;;;;;6.68;100.00;102308.67;186011;1235;43725;-84
2023/02/13 00:38:48;;;;;;;11.80;8.60;;;;;;;6.65;100.00;102311.08;185805;1235;57552;-84
2023/02/13 00:42:51;;;;;;;15.50;10.30;;;;;;;6.60;100.00;102313.17;185906;1234;43976;-84
2023/02/13 00:46:54;;;;;;;13.30;9.40;;;;;;;6.60;100.00;102314.42;185911;1234;44000;-84
2023/02/13 00:50:56;;;;;;;9.40;8.00;;;;;;;6.65;100.00;102315.12;185981;1234;43727;-84
2023/02/13 00:54:59;;;;;;;17.70;10.60;;;;;;;6.76;100.00;102312.48;185820;1234;43847;-85
2023/02/13 00:59:01;;;;;;;14.70;10.00;;;;;;;6.87;100.00;102314.06;185975;1234;58612;-84
2023/02/13 01:03:02;;;;;;;16.80;10.80;;;;;;;6.88;100.00;102319.30;185785;1234;43700;-84
2023/02/13 01:07:05;;;;;;;20.30;11.10;;;;;;;6.78;100.00;102319.12;185792;1234;43668;-84
2023/02/13 01:11:08;;;;;;;16.10;11.60;;;;;;;6.79;100.00;102321.20;185989;1234;43674;-84
2023/02/13 01:15:10;;;;;;;17.20;10.80;;;;;;;6.84;100.00;102311.16;185840;1235;43893;-85
2023/02/13 01:19:12;;;;;;;17.70;9.50;;;;;;;6.87;100.00;102304.71;186009;1234;59479;-84
2023/02/13 01:23:14;;;;;;;19.80;8.40;;;;;;;6.58;100.00;102298.42;185786;1235;43767;-84
2023/02/13 01:27:17;;;;;;;17.00;8.70;;;;;;;6.37;100.00;102292.59;186134;1234;44010;-84
2023/02/13 01:31:20;;;;;;;12.40;8.30;;;;;;;6.27;100.00;102291.49;186000;1234;43812;-83
2023/02/13 01:35:22;;;;;;;17.20;9.60;;;;;;;6.25;100.00;102296.46;186018;1235;43719;-83
2023/02/13 01:39:24;;;;;;;16.00;8.80;;;;;;;6.23;100.00;102296.54;185746;1235;59119;-84
2023/02/13 01:43:58;;;;;;;12.10;10.00;;;;;;;6.35;100.00;102288.25;185838;1234;43989;-85
2023/02/13 01:48:10;;;;;;;18.80;11.40;;;;;;;6.51;100.00;102280.67;186015;1235;44217;-85
2023/02/13 01:52:13;;;;;;;17.70;9.70;;;;;;;6.65;100.00;102279.34;185962;1234;43975;-86
2023/02/13 01:56:40;;;;;;;19.50;11.30;;;;;;;6.78;100.00;102274.66;186143;1234;44018;-85
2023/02/13 02:00:48;;;;;;;13.40;9.20;;;;;;;6.82;100.00;102272.95;186069;1234;59786;-85
2023/02/13 02:04:50;;;;;;;17.50;9.40;;;;;;;6.88;100.00;102272.92;186147;1234;43897;-85
2023/02/13 02:08:56;;;;;;;23.50;10.90;;;;;;;6.99;100.00;102271.49;186222;1234;43837;-85
2023/02/13 02:13:13;;;;;;;14.00;8.20;;;;;;;7.05;100.00;102265.27;185988;1234;43664;-85
2023/02/13 02:17:15;;;;;;;15.70;8.50;;;;;;;7.06;100.00;102258.55;186179;1234;44059;-85
2023/02/13 02:21:51;;;;;;;13.30;8.70;;;;;;;7.08;100.00;102261.14;186206;1234;59214;-85
2023/02/13 02:26:21;;;;;;;13.70;9.00;;;;;;;7.08;100.00;102259.89;186242;1234;43880;-85
2023/02/13 02:30:46;;;;;;;16.50;9.90;;;;;;;7.13;100.00;102257.08;186371;1234;43707;-85
2023/02/13 02:34:57;;;;;;;12.40;8.90;;;;;;;7.15;100.00;102260.52;186297;1234;44052;-86
2023/02/13 02:39:18;;;;;;;22.50;10.60;;;;;;;7.12;100.00;102262.95;186253;1235;43901;-85
2023/02/13 02:43:54;;;;;;;14.30;9.50;;;;;;;6.96;100.00;102268.08;186002;1234;58158;-85
2023/02/13 02:52:38;;;;;;;20.20;9.70;;;;;;;6.64;100.00;102276.02;186157;1234;43999;-86
2023/02/13 02:56:43;;;;;;;17.30;9.40;;;;;;;6.58;100.00;102274.98;186062;1234;44003;-85
2023/02/13 03:14:06;;;;;;;;;;;;;;;6.65;100.00;102255.02;185924;1234;43812;-85
2023/02/13 03:22:40;;;;;;;21.70;11.30;;;;;;;6.89;100.00;102250.84;186000;1235;43645;-85
2023/02/13 03:27:00;;;;;;;15.00;10.50;;;;;;;6.94;100.00;102253.13;185979;1234;60403;-85
2023/02/13 03:31:25;;;;;;;16.20;11.20;;;;;;;7.04;100.00;102258.63;185986;1234;43676;-84
2023/02/13 03:40:19;;;;;;;25.60;11.60;;;;;;;7.19;100.00;102258.79;186149;1234;43688;-85
2023/02/13 03:44:46;;;;;;;16.60;10.90;;;;;;;7.28;100.00;102253.36;185652;1234;43864;-85
2023/02/13 03:53:13;;;;;;;18.00;9.90;;;;;;;7.34;100.00;102254.00;185877;1234;43703;-86
2023/02/13 04:06:05;;;;;;;15.30;10.10;;;;;;;7.38;100.00;102252.63;186195;1235;43735;-87
2023/02/13 04:10:15;;;;;;;17.80;12.00;;;;;;;7.39;100.00;102250.84;186133;1235;58115;-88
2023/02/13 04:14:25;;;;;;;14.70;9.60;;;;;;;7.41;100.00;102250.60;186051;1235;43714;-86
2023/02/13 04:18:31;;;;;;;16.10;10.40;;;;;;;7.35;100.00;102252.77;186162;1235;43623;-89
2023/02/13 04:22:34;;;;;;;15.80;10.80;;;;;;;7.16;100.00;102249.91;185998;1237;44018;-89
2023/02/13 04:26:40;;;;;;;11.80;8.30;;;;;;;7.07;100.00;102252.89;186152;1235;43709;-89
2023/02/13 04:30:42;;;;;;;;;;;;;;;6.97;100.00;102249.70;186133;1235;58560;-89
2023/02/13 04:34:45;;;;;;;18.70;12.70;;;;;;;6.90;100.00;102246.58;186170;1235;43601;-89
2023/02/13 04:38:47;;;;;;;16.80;10.70;;;;;;;6.96;100.00;102239.30;186237;1235;43983;-90
2023/02/13 04:42:50;;;;;;;14.60;9.90;;;;;;;6.98;100.00;102239.61;186370;1235;43999;-89
2023/02/13 04:46:53;;;;;;;17.00;11.70;;;;;;;7.01;100.00;102238.27;186217;1235;43697;-89
2023/02/13 04:50:56;;;;;;;17.10;10.60;;;;;;;7.00;100.00;102236.71;186196;1235;59443;-89
2023/02/13 04:54:59;;;;;;;16.90;11.50;;;;;;;6.98;100.00;102239.77;186186;1235;43631;-89
2023/02/13 04:59:01;;;;;;;12.90;10.50;;;;;;;7.02;100.00;102236.61;186168;1235;44032;-89
2023/02/13 05:03:06;;;;;;;15.50;11.10;;;;;;;7.03;100.00;102238.38;186081;1235;43671;-88
2023/02/13 05:07:07;;;;;;;12.80;8.90;;;;;;;7.01;100.00;102236.13;186033;1235;43699;-87
2023/02/13 05:11:09;;;;;;;13.90;11.70;;;;;;;7.00;100.00;102236.89;185974;1235;58123;-88
2023/02/13 05:15:11;;;;;;;11.90;9.30;;;;;;;7.06;100.00;102233.33;186012;1236;43770;-87
2023/02/13 05:19:13;;;;;;;12.00;10.20;;;;;;;7.08;100.00;102238.55;185962;1238;43709;-87
2023/02/13 05:23:25;;;;;;;14.80;10.30;;;;;;;7.04;100.00;102236.73;185949;1234;43948;-87
2023/02/13 05:27:26;;;;;;;11.00;8.40;;;;;;;7.07;100.00;102229.76;186017;1235;44116;-87
2023/02/13 05:31:28;;;;;;;13.10;8.70;;;;;;;7.10;100.00;102233.20;186044;1235;59216;-88
2023/02/13 05:35:30;;;;;;;12.40;8.00;;;;;;;7.10;100.00;102234.58;186040;1235;44042;-88
2023/02/13 05:39:32;;;;;;;13.00;8.60;;;;;;;7.10;100.00;102234.27;186013;1235;43736;-87
2023/02/13 05:43:34;;;;;;;14.10;8.10;;;;;;;7.12;100.00;102237.33;186033;1235;43730;-87
2023/02/13 05:47:36;;;;;;;9.70;6.30;;;;;;;7.14;100.00;102232.87;185967;1235;44086;-88
2023/02/13 05:51:38;;;;;;;10.50;6.80;;;;;;;7.17;100.00;102231.51;185978;1235;59222;-88
2023/02/13 05:55:40;;;;;;;8.50;5.80;;;;;;;7.20;100.00;102230.34;185988;1235;43852;-88
2023/02/13 05:59:41;;;;;;;13.60;8.10;;;;;;;7.09;100.00;102244.52;185950;1235;44060;-87
2023/02/13 06:03:43;;;;;;;10.50;6.00;;;;;;;7.02;100.00;102248.80;186021;1235;43601;-88
2023/02/13 06:07:45;;;;;;;10.80;7.20;;;;;;;7.02;100.00;102254.65;186028;1235;43689;-87
2023/02/13 06:11:47;;;;;;;18.60;8.70;;;;;;;7.01;100.00;102257.30;185933;1235;58121;-87
2023/02/13 06:15:49;;;;;;;14.50;9.00;;;;;;;7.05;100.00;102258.42;186055;1235;43986;-88
2023/02/13 06:19:51;;;;;;;11.00;8.60;;;;;;;7.06;100.00;102254.66;186024;1235;44058;-88
2023/02/13 06:23:53;;;;;;;18.60;10.00;;;;;;;7.05;100.00;102261.77;186046;1235;43981;-87
2023/02/13 06:27:55;;;;;;;26.10;11.90;;;;;;;7.06;100.00;102256.27;186006;1235;43654;-87
2023/02/13 06:31:57;;;;;;;14.00;10.30;;;;;;;7.10;100.00;102260.55;186004;1235;59497;-89
2023/02/13 06:36:00;;;;;;;19.90;11.40;;;;;;;7.11;100.00;102266.84;185918;1235;44021;-89
2023/02/13 06:40:02;;;;;;;22.50;10.10;;;;;;;7.15;100.00;102270.95;186032;1235;43910;-89
2023/02/13 06:44:06;;;;;;;20.40;13.40;;;;;;;7.19;100.00;102273.83;185995;1235;43987;-89
2023/02/13 06:48:08;;;;;;;20.70;12.10;;;;;;;7.24;100.00;102277.31;186004;1235;43929;-89
2023/02/13 06:52:10;;;;;;;18.50;12.10;;;;;;;7.24;100.00;102276.41;186003;1235;58282;-88
2023/02/13 06:56:12;;;;;;;30.80;17.20;;;;;;;7.32;100.00;102280.92;186013;1235;43749;-88
2023/02/13 07:00:16;;;;;;;43.90;22.80;;;;;;;7.32;100.00;102280.92;186187;1235;43777;-88
2023/02/13 07:04:18;;;;;;;32.90;19.40;;;;;;;7.33;100.00;102280.88;186150;1234;44030;-88
2023/02/13 07:08:19;;;;;;;40.20;20.40;;;;;;;7.35;100.00;102284.52;186044;1235;43906;-89
2023/02/13 07:12:21;;;;;;;35.70;20.20;;;;;;;7.36;100.00;102284.84;185910;1237;58137;-89
2023/02/13 07:16:23;;;;;;;35.90;19.70;;;;;;;7.40;100.00;102279.59;185978;1235;43947;-88
2023/02/13 07:20:26;;;;;;;31.40;19.20;;;;;;;7.39;100.00;102285.79;185998;1235;43662;-89
2023/02/13 07:24:28;;;;;;;29.70;17.70;;;;;;;7.38;100.00;102281.05;186026;1235;43635;-88
2023/02/13 07:28:30;;;;;;;23.70;14.00;;;;;;;7.42;100.00;102279.33;185983;1235;43696;-88
2023/02/13 07:32:32;;;;;;;26.40;15.30;;;;;;;7.43;100.00;102287.93;186089;1235;58251;-88
2023/02/13 07:36:34;;;;;;;25.60;13.60;;;;;;;7.43;100.00;102287.75;186034;1235;44006;-88
2023/02/13 07:40:36;;;;;;;28.40;15.70;;;;;;;7.48;100.00;102277.71;185998;1235;43651;-88
2023/02/13 07:44:38;;;;;;;18.10;11.60;;;;;;;7.46;100.00;102275.29;185961;1235;43812;-89
2023/02/13 07:48:40;;;;;;;24.00;15.50;;;;;;;7.39;100.00;102276.80;186058;1235;43973;-88
2023/02/13 07:52:41;;;;;;;24.10;15.20;;;;;;;7.33;100.00;102285.11;185921;1235;60821;-88
2023/02/13 07:56:43;;;;;;;19.00;11.60;;;;;;;7.24;100.00;102291.08;185935;1235;44015;-88
2023/02/13 08:00:45;;;;;;;23.20;14.50;;;;;;;7.16;100.00;102293.85;185975;1235;43948;-88
2023/02/13 08:04:47;;;;;;;23.90;12.70;;;;;;;7.23;100.00;102289.16;185982;1235;43654;-88
2023/02/13 08:11:52;;;;;;;27.80;17.20;;;;;;;7.22;100.00;102289.77;186048;1235;44191;-89
2023/02/13 08:13:12;;;;;;;26.00;15.80;;;;;;;7.27;100.00;102291.51;186122;1235;57944;-88
2023/02/13 08:17:14;;;;;;;27.80;16.70;;;;;;;7.25;100.00;102288.76;186031;1235;44102;-89
2023/02/13 08:21:16;;;;;;;25.40;16.90;;;;;;;7.23;100.00;102296.40;185996;1235;44017;-89
2023/02/13 08:25:18;;;;;;;30.00;17.00;;;;;;;7.31;100.00;102295.44;186018;1235;43956;-89
2023/02/13 08:29:20;;;;;;;25.30;16.50;;;;;;;7.33;100.00;102293.59;186158;1235;43757;-89
2023/02/13 08:33:22;;;;;;;21.50;15.70;;;;;;;7.30;100.00;102296.52;185947;1235;59430;-88
2023/02/13 08:37:24;;;;;;;26.30;16.90;;;;;;;7.42;100.00;102296.45;186047;1235;43668;-88
2023/02/13 08:41:27;;;;;;;21.60;15.40;;;;;;;7.43;100.00;102304.18;186056;1235;44104;-88
2023/02/13 08:45:29;;;;;;;25.50;16.60;;;;;;;7.47;100.00;102304.04;186086;1235;44227;-89
2023/02/13 08:49:32;;;;;;;12.60;8.80;;;;;;;7.49;100.00;102312.63;186034;1235;44022;-88
2023/02/13 08:53:35;;;;;;;9.30;5.40;;;;;;;7.49;100.00;102321.10;185988;1235;57573;-88
2023/02/13 08:57:36;;;;;;;7.20;5.50;;;;;;;7.46;100.00;102326.33;186033;1234;43745;-88
2023/02/13 09:01:39;;;;;;;6.40;4.30;;;;;;;7.48;100.00;102332.80;186024;1235;43978;-88
2023/02/13 09:05:41;;;;;;;3.30;2.20;;;;;;;7.40;100.00;102336.23;185897;1235;43986;-89
2023/02/13 09:09:43;;;;;;;6.10;3.10;;;;;;;7.28;100.00;102342.13;185863;1235;43704;-89
2023/02/13 09:13:47;;;;;;;3.20;2.30;;;;;;;7.27;100.00;102347.30;186025;1235;58174;-89
2023/02/13 09:17:49;;;;;;;6.80;3.40;;;;;;;7.22;100.00;102349.75;186051;1235;44047;-88
2023/02/13 09:21:51;;;;;;;5.30;2.60;;;;;;;7.17;100.00;102346.56;186053;1235;44041;-89
2023/02/13 09:25:53;;;;;;;11.40;2.90;;;;;;;7.20;100.00;102352.30;185994;1235;43849;-88
2023/02/13 09:29:55;;;;;;;2.80;1.70;;;;;;;7.24;100.00;102352.69;186025;1235;44097;-88
2023/02/13 09:33:57;;;;;;;3.80;3.10;;;;;;;7.28;100.00;102353.25;186125;1235;58012;-89
2023/02/13 09:37:59;;;;;;;5.50;3.00;;;;;;;7.32;100.00;102354.54;186019;1235;43630;-89
2023/02/13 09:42:04;;;;;;;3.30;2.20;;;;;;;7.45;100.00;102362.91;186297;1235;43997;-88
2023/02/13 09:46:14;;;;;;;6.50;3.10;;;;;;;7.45;100.00;102364.13;186113;1235;43590;-89
2023/02/13 09:50:29;;;;;;;3.40;2.60;;;;;;;7.51;100.00;102365.13;185942;1235;43849;-89
2023/02/13 09:54:31;;;;;;;7.60;3.40;;;;;;;7.46;100.00;102360.75;186050;1235;60398;-89
2023/02/13 09:58:41;;;;;;;6.60;3.20;;;;;;;7.62;100.00;102356.98;185994;1233;43696;-89
2023/02/13 10:03:05;;;;;;;5.60;3.10;;;;;;;7.67;100.00;102360.87;185947;1235;44015;-89
2023/02/13 10:07:19;;;;;;;5.20;3.60;;;;;;;7.80;100.00;102364.99;185967;1235;43820;-89
2023/02/13 10:11:31;;;;;;;12.40;3.60;;;;;;;7.94;100.00;102363.80;186011;1235;43929;-90
2023/02/13 10:15:47;;;;;;;4.10;3.10;;;;;;;7.92;100.00;102365.83;185991;1235;58049;-89
2023/02/13 10:19:55;;;;;;;4.30;2.90;;;;;;;8.08;100.00;102357.80;186292;1236;44198;-89
2023/02/13 10:24:06;;;;;;;8.30;4.90;;;;;;;8.16;100.00;102358.55;186016;1235;43714;-89
2023/02/13 10:28:24;;;;;;;9.00;3.10;;;;;;;8.05;100.00;102361.95;185799;1235;43932;-89
2023/02/13 10:32:50;;;;;;;18.60;10.50;;;;;;;8.03;100.00;102353.74;186055;1235;44012;-89
2023/02/13 10:36:52;;;;;;;8.50;4.40;;;;;;;8.07;100.00;102350.91;185219;1242;58206;-89
2023/02/13 10:41:17;;;;;;;5.90;4.00;;;;;;;8.11;100.00;102341.41;185054;1242;43850;-90
2023/02/13 10:45:25;;;;;;;4.60;3.50;;;;;;;8.22;100.00;102331.27;183843;1248;43877;-89
2023/02/13 10:50:00;;;;;;;11.00;5.10;;;;;;;8.17;97.87;102330.39;184197;1248;43913;-89
2023/02/13 10:54:20;;;;;;;6.10;3.60;;;;;;;8.29;99.04;102331.88;184088;1248;43726;-89
2023/02/13 10:58:51;;;;;;;5.10;4.60;;;;;;;8.31;97.56;102325.07;183866;1248;57449;-88
2023/02/13 11:02:55;;;;;;;4.60;3.80;;;;;;;8.48;99.42;102316.80;183583;1248;44096;-89
2023/02/13 11:07:02;;;;;;;5.70;4.50;;;;;;;8.40;96.69;102324.02;183686;1248;43717;-89
2023/02/13 11:11:34;;;;;;;5.10;4.30;;;;;;;8.27;96.37;102324.16;183691;1248;43988;-89
2023/02/13 11:15:36;;;;;;;5.70;4.90;;;;;;;8.21;98.85;102317.34;185087;1242;43804;-89
2023/02/13 11:19:50;;;;;;;9.60;4.80;;;;;;;8.05;98.12;102314.09;185021;1242;59533;-88
2023/02/13 11:23:56;;;;;;;4.60;4.00;;;;;;;7.96;99.73;102311.23;185977;1235;43720;-89
2023/02/13 11:28:16;;;;;;;7.60;4.90;;;;;;;8.01;100.00;102301.86;186024;1235;43804;-89
2023/02/13 11:32:25;;;;;;;6.20;4.30;;;;;;;8.08;100.00;102301.04;185946;1235;43838;-89
2023/02/13 11:36:31;;;;;;;6.40;4.80;;;;;;;8.25;99.84;102302.15;186080;1234;43573;-89
2023/02/13 11:40:33;;;;;;;7.00;5.30;;;;;;;8.26;99.92;102297.17;186112;1235;59399;-89
2023/02/13 11:44:35;;;;;;;8.20;4.70;;;;;;;8.19;100.00;102295.31;186079;1235;44145;-89
2023/02/13 11:48:37;;;;;;;9.20;5.70;;;;;;;8.20;99.95;102289.29;186149;1235;43674;-89
2023/02/13 11:52:38;;;;;;;7.30;5.40;;;;;;;8.15;99.57;102291.58;186066;1235;43805;-89
2023/02/13 11:56:50;;;;;;;6.80;5.80;;;;;;;8.13;98.63;102288.48;186039;1235;44155;-90
2023/02/13 12:01:27;;;;;;;7.10;5.30;;;;;;;8.14;97.63;102287.40;186037;1235;58132;-89
2023/02/13 12:05:29;;;;;;;6.80;5.90;;;;;;;8.21;98.17;102288.52;185984;1235;43944;-89
2023/02/13 12:09:31;;;;;;;10.30;7.20;;;;;;;8.21;98.34;102285.36;186042;1235;43911;-89
2023/02/13 12:13:37;;;;;;;10.10;6.20;;;;;;;8.18;98.49;102287.25;185995;1236;44020;-89
2023/02/13 12:17:43;;;;;;;9.20;7.60;;;;;;;8.33;98.63;102283.61;185903;1235;43960;-89
2023/02/13 12:22:14;;;;;;;10.50;8.40;;;;;;;8.37;98.35;102287.38;186074;1234;59300;-90
2023/02/13 12:26:30;;;;;;;9.40;6.50;;;;;;;8.33;97.13;102287.52;185944;1235;43821;-89
2023/02/13 12:30:51;;;;;;;10.50;7.50;;;;;;;8.30;97.39;102282.88;186091;1237;43610;-89
2023/02/13 12:35:20;;;;;;;18.00;10.20;;;;;;;8.29;96.82;102273.73;186095;1235;44152;-89
2023/02/13 12:39:36;;;;;;;14.40;9.10;;;;;;;8.19;99.19;102270.75;186097;1235;43676;-89
2023/02/13 12:43:40;;;;;;;16.80;11.50;;;;;;;8.20;99.02;102270.19;185982;1235;59327;-89
2023/02/13 12:48:06;;;;;;;11.80;10.60;;;;;;;8.18;99.16;102272.20;186282;1235;43646;-89
2023/02/13 12:52:26;;;;;;;14.80;9.40;;;;;;;8.20;99.52;102270.90;186167;1235;43733;-89
2023/02/13 12:56:31;;;;;;;15.30;7.30;;;;;;;8.17;100.00;102264.84;186092;1235;43710;-89
2023/02/13 13:00:49;;;;;;;12.00;8.30;;;;;;;8.15;100.00;102257.50;186178;1235;43892;-89
2023/02/13 13:04:54;;;;;;;16.50;11.20;;;;;;;8.23;100.00;102257.16;186155;1235;59551;-89
2023/02/13 13:09:16;;;;;;;13.40;8.80;;;;;;;8.24;100.00;102249.36;186214;1235;44127;-89
2023/02/13 13:13:37;;;;;;;12.60;8.30;;;;;;;8.21;100.00;102255.66;186224;1235;44004;-89
2023/02/13 13:17:49;;;;;;;19.20;12.90;;;;;;;8.11;100.00;102252.50;185986;1235;43792;-89
2023/02/13 13:21:57;;;;;;;14.10;9.30;;;;;;;8.19;100.00;102247.60;186097;1235;44043;-89
2023/02/13 13:26:34;;;;;;;19.60;11.50;;;;;;;8.32;100.00;102255.59;186126;1235;57390;-89
2023/02/13 13:30:37;;;;;;;11.50;6.90;;;;;;;8.37;99.73;102254.48;186071;1235;43654;-89
2023/02/13 13:34:39;;;;;;;13.10;10.00;;;;;;;8.39;99.40;102261.48;186078;1235;43721;-89
2023/02/13 13:38:41;;;;;;;12.00;8.70;;;;;;;8.38;98.59;102263.81;185906;1235;44061;-89
2023/02/13 13:42:50;;;;;;;11.00;8.50;;;;;;;8.42;96.90;102265.05;186127;1235;43616;-89
2023/02/13 13:47:03;;;;;;;13.40;8.50;;;;;;;8.45;96.51;102262.81;186170;1235;58050;-89
2023/02/13 13:51:06;;;;;;;14.30;10.30;;;;;;;8.49;96.38;102255.41;186269;1235;43691;-89
2023/02/13 13:55:46;;;;;;;13.60;10.40;;;;;;;8.52;96.33;102254.98;186072;1235;44045;-89
2023/02/13 13:59:50;;;;;;;11.40;10.00;;;;;;;8.42;96.89;102259.77;186332;1235;43677;-89
2023/02/13 14:04:04;;;;;;;16.00;11.00;;;;;;;8.38;98.29;102263.98;186090;1235;43719;-88
2023/02/13 14:08:36;;;;;;;14.40;10.30;;;;;;;8.38;99.26;102254.98;186082;1235;59318;-88
2023/02/13 14:12:49;;;;;;;13.50;9.50;;;;;;;8.38;98.88;102244.54;185931;1235;43863;-86
2023/02/13 14:16:52;;;;;;;12.80;10.00;;;;;;;8.60;99.42;102232.86;185877;1235;43790;-86
2023/02/13 14:20:57;;;;;;;9.40;7.80;;;;;;;8.71;98.56;102229.23;185882;1235;43964;-87
2023/02/13 14:25:04;;;;;;;14.80;9.10;;;;;;;8.82;97.97;102225.23;185908;1235;43979;-86
2023/02/13 14:29:09;;;;;;;12.90;9.00;;;;;;;8.82;97.12;102230.88;185967;1235;56963;-87
2023/02/13 14:33:26;;;;;;;10.80;7.60;;;;;;;8.81;96.52;102222.77;185926;1235;43998;-87
2023/02/13 14:37:38;;;;;;;15.10;11.00;;;;;;;8.83;96.25;102223.04;185921;1236;43864;-86
2023/02/13 14:42:05;;;;;;;12.50;9.30;;;;;;;8.87;95.95;102220.41;186035;1235;43954;-86
2023/02/13 14:46:25;;;;;;;16.40;9.30;;;;;;;8.89;96.51;102214.66;186068;1236;44034;-86
2023/02/13 14:50:31;;;;;;;16.50;10.70;;;;;;;8.89;97.26;102212.53;185997;1235;59928;-86
2023/02/13 14:54:48;;;;;;;15.30;10.60;;;;;;;8.86;97.59;102208.77;186055;1237;43792;-86
2023/02/13 14:59:08;;;;;;;12.00;8.50;;;;;;;8.79;97.45;102202.91;185959;1236;43794;-86
2023/02/13 15:03:39;;;;;;;20.40;11.20;;;;;;;8.71;97.53;102203.75;185939;1235;44061;-86
2023/02/13 15:08:18;;;;;;;13.20;10.30;;;;;;;8.67;98.75;102193.67;185876;1235;43967;-85
2023/02/13 15:12:35;;;;;;;15.50;11.20;;;;;;;8.54;99.81;102184.30;185818;1235;58099;-87
2023/02/13 15:16:37;;;;;;;20.60;10.20;;;;;;;8.57;100.00;102172.01;185931;1235;44157;-87
2023/02/13 15:20:42;;;;;;;12.20;8.40;;;;;;;8.58;100.00;102162.41;185954;1238;43994;-88
2023/02/13 15:24:46;;;;;;;11.90;8.90;;;;;;;8.55;100.00;102164.46;185875;1236;43834;-88
2023/02/13 15:29:00;;;;;;;10.50;8.10;;;;;;;8.55;100.00;102158.11;185974;1234;44103;-88
2023/02/13 15:33:16;;;;;;;13.50;9.10;;;;;;;8.49;100.00;102168.80;185862;1235;59441;-88
2023/02/13 15:37:24;;;;;;;8.80;8.00;;;;;;;8.48;100.00;102167.24;185781;1237;43752;-88
2023/02/13 15:41:36;;;;;;;12.60;10.80;;;;;;;8.42;100.00;102159.50;184800;1235;1537888;-88
2023/02/13 15:45:42;;;;;;;14.10;10.40;;;;;;;8.39;100.00;102163.52;185867;1235;43752;-88
2023/02/13 15:49:46;;;;;;;12.10;10.70;;;;;;;8.37;100.00;102163.62;185956;1235;43749;-88
2023/02/13 15:53:54;;;;;;;19.30;11.60;;;;;;;8.31;100.00;102159.63;185959;1235;58041;-88
2023/02/13 15:57:59;;;;;;;16.90;10.90;;;;;;;8.25;100.00;102160.95;186002;1235;43953;-90
2023/02/13 16:02:03;;;;;;;13.10;8.90;;;;;;;8.21;100.00;102154.75;185986;1235;44062;-88
2023/02/13 16:06:06;;;;;;;15.10;10.10;;;;;;;8.17;100.00;102146.79;185945;1234;43860;-88
2023/02/13 16:10:17;;;;;;;12.30;8.20;;;;;;;8.14;100.00;102145.65;185971;1235;44127;-89
2023/02/13 16:14:28;;;;;;;11.60;8.30;;;;;;;8.12;100.00;102139.91;186003;1236;57174;-89
2023/02/13 16:18:30;;;;;;;15.90;10.00;;;;;;;8.09;100.00;102138.60;185976;1235;44162;-88
2023/02/13 16:22:45;;;;;;;18.80;9.80;;;;;;;8.10;100.00;102147.24;186056;1235;44001;-87
2023/02/13 16:26:48;;;;;;;16.60;9.70;;;;;;;8.11;100.00;102150.02;185965;1235;43960;-86
2023/02/13 16:30:55;;;;;;;14.00;9.80;;;;;;;8.11;100.00;102160.27;185897;1235;44566;-87
2023/02/13 16:35:16;;;;;;;15.00;9.00;;;;;;;8.10;100.00;102157.29;185952;1236;57892;-87
2023/02/13 16:39:29;;;;;;;12.80;8.80;;;;;;;8.09;100.00;102160.02;185921;1236;43977;-87
2023/02/13 16:43:37;;;;;;;12.30;9.20;;;;;;;8.03;100.00;102173.31;185924;1235;43983;-87
2023/02/13 16:47:38;;;;;;;13.60;9.40;;;;;;;7.98;100.00;102156.90;185902;1235;44202;-87
2023/02/13 16:51:47;;;;;;;17.70;11.60;;;;;;;8.00;100.00;102147.30;185971;1238;43913;-87
2023/02/13 16:56:00;;;;;;;20.40;9.80;;;;;;;7.90;100.00;102159.70;185946;1235;59627;-87
2023/02/13 17:00:02;;;;;;;16.00;8.90;;;;;;;7.94;100.00;102153.22;185963;1236;44090;-87
2023/02/13 17:04:21;;;;;;;15.20;9.80;;;;;;;7.87;100.00;102167.23;185937;1235;44040;-88
2023/02/13 17:08:23;;;;;;;17.00;9.90;;;;;;;7.80;100.00;102168.57;185966;1235;43698;-90
2023/02/13 17:12:26;;;;;;;13.00;8.90;;;;;;;7.76;100.00;102176.88;186089;1235;44135;-90
2023/02/13 17:16:28;;;;;;;10.90;8.10;;;;;;;7.75;100.00;102166.86;186129;1236;60558;-89
2023/02/13 17:20:32;;;;;;;23.40;9.30;;;;;;;7.66;99.96;102173.91;186086;1235;43886;-89
2023/02/13 17:24:34;;;;;;;11.00;7.60;;;;;;;7.71;100.00;102165.59;186067;1235;43852;-90
2023/02/13 17:28:36;;;;;;;11.60;7.30;;;;;;;7.67;100.00;102163.27;185950;1235;44111;-89
2023/02/13 17:32:38;;;;;;;13.50;9.20;;;;;;;7.73;100.00;102155.97;185996;1235;44098;-89
2023/02/13 17:36:40;;;;;;;10.00;7.60;;;;;;;7.78;100.00;102152.05;185953;1235;57329;-87
2023/02/13 17:40:43;;;;;;;10.90;8.80;;;;;;;7.81;99.99;102147.15;185924;1235;43729;-89
2023/02/13 17:44:45;;;;;;;14.70;7.50;;;;;;;7.79;99.86;102151.65;185989;1235;43945;-90
2023/02/13 17:48:47;;;;;;;10.50;6.50;;;;;;;7.82;99.84;102144.84;185987;1239;43941;-89
2023/02/13 17:52:50;;;;;;;9.50;5.60;;;;;;;7.80;99.89;102133.27;186075;1235;43863;-90
2023/02/13 17:56:52;;;;;;;11.40;7.80;;;;;;;7.76;99.92;102131.84;185980;1235;60252;-90
2023/02/13 18:00:54;;;;;;;10.40;7.20;;;;;;;7.75;99.93;102139.98;185984;1236;43853;-90
2023/02/13 18:04:56;;;;;;;8.50;7.30;;;;;;;7.73;99.91;102137.59;185960;1235;43940;-89
2023/02/13 18:08:58;;;;;;;8.40;6.80;;;;;;;7.56;99.88;102148.34;186059;1234;44012;-89
2023/02/13 18:13:03;;;;;;;13.00;7.50;;;;;;;7.43;100.00;102152.73;185956;1235;43947;-89
2023/02/13 18:17:05;;;;;;;13.40;9.30;;;;;;;7.34;100.00;102164.02;185790;1237;58953;-90
2023/02/13 18:21:08;;;;;;;14.00;9.50;;;;;;;7.34;100.00;102155.52;185933;1236;44154;-89
2023/02/13 18:25:11;;;;;;;10.70;7.80;;;;;;;7.23;100.00;102152.23;185964;1235;43793;-90
2023/02/13 18:29:13;;;;;;;17.40;8.20;;;;;;;7.20;100.00;102154.27;185987;1235;44055;-90
2023/02/13 18:33:15;;;;;;;10.10;6.00;;;;;;;7.13;100.00;102145.03;186023;1235;43989;-90
2023/02/13 18:37:19;;;;;;;10.70;7.30;;;;;;;7.09;100.00;102138.10;186054;1235;58091;-90
2023/02/13 18:41:21;;;;;;;14.40;8.90;;;;;;;7.05;100.00;102134.54;186142;1235;44108;-91
2023/02/13 18:45:23;;;;;;;13.80;7.30;;;;;;;7.10;100.00;102138.59;186059;1237;44334;-90
2023/02/13 18:49:25;;;;;;;11.00;7.50;;;;;;;7.12;100.00;102141.33;185983;1235;43965;-89
2023/02/13 18:53:28;;;;;;;10.40;6.80;;;;;;;7.04;100.00;102144.66;186177;1237;43830;-90
2023/02/13 18:57:30;;;;;;;12.30;8.10;;;;;;;6.97;100.00;102148.23;185990;1238;60329;-89
2023/02/13 19:01:34;;;;;;;11.30;7.90;;;;;;;6.94;100.00;102151.54;186047;1235;44319;-90
2023/02/13 19:05:39;;;;;;;14.40;9.70;;;;;;;6.98;100.00;102158.98;186083;1236;43719;-90
2023/02/13 19:09:42;;;;;;;80.50;47.30;;;;;;;7.07;100.00;102172.62;185998;1235;43683;-89
2023/02/13 19:13:45;;;;;;;12.20;9.60;;;;;;;7.09;100.00;102165.30;186029;1235;43710;-90
2023/02/13 19:17:47;;;;;;;20.00;10.10;;;;;;;7.05;100.00;102157.67;185948;1235;57145;-89
2023/02/13 19:21:49;;;;;;;25.10;13.90;;;;;;;7.09;100.00;102163.87;186148;1235;43827;-89
2023/02/13 19:25:51;;;;;;;62.30;29.80;;;;;;;7.12;100.00;102165.70;186034;1235;43820;-89